Dayton, Maine
Current Conditions -  °F | °C
As of 10:35 AM on Thursday 30 Oct 2014 (Local Time) from KSFM Reporting Station
Overcast Overcast  
Wind Chill: 52°   Ceiling: 7500
Heat Index: 52°   Visibility: 10mi
Dew Point: 37°   Wind: 9mph
Humidity: 58%   Direction: 310°NW
Pressure: 29.91"   Gusts: NA
Location:  43.4906°N, 70.5283°W
Report Text: KSFM 301435Z AUTO 31008KT 10SM OVC075 11/03 A2991 RMK AO1
Loading
Personal Weather Stations






























Interactive Weather Map
Tropical Storm Tracking
New forecast layout! Learn more

10-Day Weather Forecast

Advertisements
Track Severe Weather on mobile